Time;durP1;ratioP1;P1;durP2;ratioP2;P2;SDS_P1;SDS_P2;PMS_P1;PMS_P2;Temp;Humidity;BMP_temperature;BMP_pressure;BME280_temperature;BME280_humidity;BME280_pressure;Samples;Min_cycle;Max_cycle;Signal;HPM_P1;HPM_P2
2023/12/21 15:13:02;;;;;;;3.70;2.00;;;4.70;99.90;;;;;;5021808;27;2106707;-47
2023/12/21 15:15:27;;;;;;;7.45;2.67;;;4.70;99.90;;;;;;5092432;28;20039;-49
2023/12/21 15:17:53;;;;;;;6.80;3.10;;;4.70;99.90;;;;;;5090161;28;20042;-48
2023/12/21 15:20:19;;;;;;;6.68;2.63;;;4.70;99.90;;;;;;5091962;28;20098;-47
2023/12/21 15:22:45;;;;;;;5.07;2.25;;;4.80;99.90;;;;;;5093167;28;20020;-48
2023/12/21 15:25:11;;;;;;;8.30;3.13;;;4.80;99.90;;;;;;5092759;28;20077;-47
2023/12/21 15:27:36;;;;;;;7.78;3.05;;;4.80;99.90;;;;;;5090862;28;20020;-49
2023/12/21 15:30:03;;;;;;;6.65;2.38;;;4.80;99.90;;;;;;5074378;28;20023;-48
2023/12/21 15:32:30;;;;;;;5.28;2.50;;;4.90;99.90;;;;;;5073590;28;20051;-48
2023/12/21 15:34:56;;;;;;;6.82;3.15;;;4.90;99.90;;;;;;5092692;28;20605;-49
2023/12/21 15:37:21;;;;;;;5.30;2.60;;;4.80;99.90;;;;;;5089986;28;20028;-49
2023/12/21 15:39:47;;;;;;;7.55;3.35;;;4.90;99.90;;;;;;5092627;28;20035;-49
2023/12/21 15:42:13;;;;;;;6.90;2.35;;;4.90;99.90;;;;;;5072652;28;20027;-48
2023/12/21 15:44:38;;;;;;;6.25;2.00;;;4.90;99.90;;;;;;5091097;28;20031;-49
2023/12/21 15:47:04;;;;;;;7.25;2.30;;;5.00;99.90;;;;;;5092422;28;20047;-49
2023/12/21 15:49:30;;;;;;;6.00;2.75;;;5.10;99.90;;;;;;5091836;28;20020;-49
2023/12/21 15:51:55;;;;;;;9.45;2.72;;;5.10;99.90;;;;;;5092568;28;20062;-49
2023/12/21 15:54:21;;;;;;;9.10;4.07;;;5.20;99.90;;;;;;5091718;28;20478;-49
2023/12/21 15:56:47;;;;;;;10.68;4.40;;;5.10;99.90;;;;;;5092884;28;20055;-47
2023/12/21 15:59:13;;;;;;;9.90;3.70;;;5.20;99.90;;;;;;5088885;28;20028;-49
2023/12/21 16:01:40;;;;;;;5.72;2.35;;;5.20;99.90;;;;;;5092679;28;20123;-60
2023/12/21 16:04:08;;;;;;;5.15;2.58;;;5.30;99.90;;;;;;5090324;28;20032;-50
2023/12/21 16:06:34;;;;;;;6.50;2.95;;;5.30;99.90;;;;;;5092915;28;20045;-50
2023/12/21 16:09:00;;;;;;;4.10;1.85;;;5.30;99.90;;;;;;5089851;28;20467;-46
2023/12/21 16:11:26;;;;;;;5.80;2.65;;;5.40;99.90;;;;;;5091774;28;20044;-48
2023/12/21 16:13:53;;;;;;;4.70;2.03;;;5.60;99.90;;;;;;5091703;28;20114;-49
2023/12/21 16:16:19;;;;;;;6.03;2.40;;;5.60;99.90;;;;;;5091688;28;20031;-47
2023/12/21 16:18:45;;;;;;;5.50;1.90;;;5.60;99.90;;;;;;5090444;28;20027;-48
2023/12/21 16:21:13;;;;;;;7.55;3.00;;;5.70;99.90;;;;;;5092981;28;20200;-49
2023/12/21 16:23:39;;;;;;;9.27;2.53;;;5.70;99.90;;;;;;5080500;28;20071;-52
2023/12/21 16:26:04;;;;;;;7.03;2.70;;;5.70;99.90;;;;;;5077253;28;20130;-51
2023/12/21 16:28:30;;;;;;;5.72;2.13;;;5.70;99.90;;;;;;5076895;28;20020;-52
2023/12/21 16:30:56;;;;;;;6.38;2.17;;;5.80;99.90;;;;;;5078212;28;20032;-49
2023/12/21 16:33:22;;;;;;;5.68;2.67;;;5.80;99.90;;;;;;5076955;28;20024;-51
2023/12/21 16:35:47;;;;;;;6.72;2.45;;;5.70;99.90;;;;;;5080212;28;20081;-53
2023/12/21 16:38:15;;;;;;;8.60;2.83;;;5.80;99.90;;;;;;5077518;28;20032;-50
2023/12/21 16:40:41;;;;;;;8.40;3.20;;;5.80;99.90;;;;;;5079522;28;20441;-50
2023/12/21 16:43:06;;;;;;;6.05;2.38;;;5.80;99.90;;;;;;5080534;28;20031;-51
2023/12/21 16:45:32;;;;;;;5.88;2.30;;;5.90;99.90;;;;;;5079147;28;20118;-50
2023/12/21 16:47:58;;;;;;;9.30;2.53;;;5.90;99.90;;;;;;5078521;28;20056;-52
2023/12/21 16:50:26;;;;;;;8.55;3.10;;;5.90;99.90;;;;;;5061415;28;20433;-52
2023/12/21 16:52:52;;;;;;;6.55;2.50;;;6.00;99.90;;;;;;5079095;28;20058;-49
2023/12/21 16:55:18;;;;;;;8.27;3.10;;;6.00;99.90;;;;;;5077515;28;20035;-52
2023/12/21 16:57:44;;;;;;;6.93;3.25;;;6.00;99.90;;;;;;5074969;28;20024;-51
2023/12/21 17:00:11;;;;;;;6.93;2.50;;;6.00;99.90;;;;;;5078175;28;20410;-53
2023/12/21 17:02:41;;;;;;;6.88;2.55;;;6.00;99.90;;;;;;5079067;28;20103;-53
2023/12/21 17:05:23;;;;;;;6.60;2.88;;;6.00;99.90;;;;;;5076311;28;20387;-53
2023/12/21 17:08:27;;;;;;;7.43;1.80;;;6.00;99.90;;;;;;5058476;28;20043;-52
2023/12/21 17:10:59;;;;;;;5.90;2.20;;;6.10;99.90;;;;;;5076927;28;20731;-49
2023/12/21 17:13:47;;;;;;;6.47;2.30;;;6.10;99.90;;;;;;5059136;28;20047;-49
2023/12/21 17:16:23;;;;;;;5.18;2.25;;;6.10;99.90;;;;;;5077118;28;20075;-50
2023/12/21 17:18:50;;;;;;;2.67;1.50;;;6.00;99.90;;;;;;5073869;28;20036;-49
2023/12/21 17:21:16;;;;;;;7.32;3.38;;;6.10;99.90;;;;;;5077694;28;20382;-50
2023/12/21 17:23:42;;;;;;;8.03;3.17;;;6.00;99.90;;;;;;5067745;28;20034;-50
2023/12/21 17:26:08;;;;;;;7.50;3.20;;;6.00;99.90;;;;;;5083778;28;20028;-53
2023/12/21 17:28:35;;;;;;;7.50;2.70;;;6.00;99.90;;;;;;5085750;28;20034;-50
2023/12/21 17:31:02;;;;;;;6.10;2.20;;;6.00;99.90;;;;;;5084487;28;20047;-50
2023/12/21 17:33:28;;;;;;;;;;;6.00;99.90;;;;;;5060226;28;20189;-48
2023/12/21 17:35:55;;;;;;;6.97;2.70;;;6.00;99.90;;;;;;5086149;28;19911;-49
2023/12/21 17:38:21;;;;;;;8.45;2.85;;;5.90;99.90;;;;;;5070621;28;20475;-49
2023/12/21 17:40:47;;;;;;;10.32;2.85;;;5.80;99.90;;;;;;5087006;28;20124;-49
2023/12/21 17:43:13;;;;;;;15.07;5.47;;;5.80;99.90;;;;;;5068300;28;20655;-50
2023/12/21 17:45:38;;;;;;;17.40;6.18;;;5.70;99.90;;;;;;5086271;28;20502;-48
2023/12/21 17:48:05;;;;;;;9.88;3.80;;;5.60;99.90;;;;;;5087031;28;20402;-49
2023/12/21 17:50:31;;;;;;;7.10;3.08;;;5.60;99.90;;;;;;5087871;28;20027;-48
2023/12/21 17:52:57;;;;;;;6.15;2.65;;;5.60;99.90;;;;;;5088411;28;20047;-49
2023/12/21 17:55:22;;;;;;;11.98;4.43;;;5.80;99.90;;;;;;5086883;28;20625;-49
2023/12/21 17:57:48;;;;;;;11.73;4.85;;;5.80;99.90;;;;;;5083003;28;20118;-48
2023/12/21 18:00:14;;;;;;;11.38;3.40;;;5.60;99.90;;;;;;5074203;28;20039;-48
2023/12/21 18:02:40;;;;;;;5.22;2.88;;;5.60;99.90;;;;;;5077171;28;20070;-48
2023/12/21 18:05:06;;;;;;;7.20;2.67;;;5.70;99.90;;;;;;5077354;28;20703;-47
2023/12/21 18:07:32;;;;;;;10.03;3.60;;;5.60;99.90;;;;;;5057209;28;20043;-46
2023/12/21 18:09:58;;;;;;;15.32;6.22;;;5.70;99.90;;;;;;5078361;28;20020;-49
2023/12/21 18:12:24;;;;;;;13.32;5.07;;;5.70;99.90;;;;;;5077056;28;20047;-48
2023/12/21 18:14:51;;;;;;;14.63;5.78;;;5.80;99.90;;;;;;5059428;28;20024;-49
2023/12/21 18:17:16;;;;;;;15.20;6.05;;;5.80;99.90;;;;;;5074231;28;20039;-48
2023/12/21 18:19:42;;;;;;;11.60;5.18;;;5.80;99.90;;;;;;5077418;28;20020;-48
2023/12/21 18:22:13;;;;;;;12.50;3.97;;;5.90;99.90;;;;;;5074730;28;20063;-49
2023/12/21 18:24:40;;;;;;;9.40;3.38;;;5.90;99.90;;;;;;5076277;28;20478;-48
2023/12/21 18:27:06;;;;;;;11.55;3.83;;;6.00;99.90;;;;;;5077032;28;20031;-47
2023/12/21 18:29:31;;;;;;;10.20;4.25;;;6.00;99.90;;;;;;5074800;28;20020;-50
2023/12/21 18:32:00;;;;;;;8.35;3.40;;;6.00;99.90;;;;;;5077233;28;20032;-48
2023/12/21 18:34:26;;;;;;;8.25;3.90;;;6.00;99.90;;;;;;5078516;28;20039;-46
2023/12/21 18:36:52;;;;;;;11.55;4.18;;;6.00;99.90;;;;;;5077856;28;20389;-50
2023/12/21 18:39:18;;;;;;;8.57;3.42;;;6.00;99.90;;;;;;5073896;28;20591;-48
2023/12/21 18:41:43;;;;;;;10.20;4.70;;;6.00;99.90;;;;;;5076867;28;20043;-48
2023/12/21 18:44:09;;;;;;;7.85;3.72;;;6.10;99.90;;;;;;5075992;28;20106;-51
2023/12/21 18:46:38;;;;;;;10.13;4.10;;;6.00;99.90;;;;;;5075696;28;20032;-51
2023/12/21 18:49:04;;;;;;;7.45;3.28;;;6.00;99.90;;;;;;5073374;28;20020;-50
2023/12/21 18:51:30;;;;;;;9.85;4.38;;;6.00;99.90;;;;;;5075272;28;20100;-51
2023/12/21 18:53:55;;;;;;;9.85;4.53;;;6.00;99.90;;;;;;5075620;28;20071;-49
2023/12/21 18:56:23;;;;;;;11.05;3.67;;;6.10;99.90;;;;;;5076658;28;20111;-47
2023/12/21 18:58:49;;;;;;;12.27;4.95;;;6.20;99.90;;;;;;5053724;28;20063;-47
2023/12/21 19:01:15;;;;;;;10.48;3.67;;;6.20;99.90;;;;;;5075951;28;20475;-50
2023/12/21 19:03:42;;;;;;;9.93;4.10;;;6.30;99.90;;;;;;5076394;28;20133;-53
2023/12/21 19:06:08;;;;;;;14.05;5.82;;;6.30;99.90;;;;;;5074910;28;20035;-51
2023/12/21 19:08:34;;;;;;;15.07;5.53;;;6.30;99.90;;;;;;5074689;28;20550;-53
2023/12/21 19:11:01;;;;;;;12.75;5.30;;;6.30;99.90;;;;;;5074769;28;20055;-51
2023/12/21 19:13:27;;;;;;;10.50;4.72;;;6.30;99.90;;;;;;5075253;28;20050;-53
2023/12/21 19:15:53;;;;;;;13.15;4.97;;;6.40;99.90;;;;;;5076633;28;20028;-49
2023/12/21 19:18:19;;;;;;;12.30;4.20;;;6.40;99.90;;;;;;5073819;28;20024;-50
2023/12/21 19:20:47;;;;;;;9.55;3.63;;;6.50;99.90;;;;;;5075258;28;20037;-50
2023/12/21 19:23:14;;;;;;;7.63;3.33;;;6.40;99.90;;;;;;5055957;28;20498;-49
2023/12/21 19:25:41;;;;;;;12.05;4.07;;;6.40;99.90;;;;;;5074878;28;20043;-52
2023/12/21 19:28:07;;;;;;;6.38;3.63;;;6.40;99.90;;;;;;5055811;28;20040;-49
2023/12/21 19:30:33;;;;;;;10.57;4.22;;;6.40;99.90;;;;;;5057591;28;20020;-51
2023/12/21 19:33:05;;;;;;;10.73;4.90;;;6.40;99.90;;;;;;5075910;28;20557;-47
2023/12/21 19:35:30;;;;;;;10.82;5.20;;;6.40;99.90;;;;;;5075541;28;20027;-49
2023/12/21 19:37:57;;;;;;;15.65;6.55;;;6.40;99.90;;;;;;5075014;28;20431;-52
2023/12/21 19:40:22;;;;;;;20.17;7.33;;;6.40;99.90;;;;;;5076932;28;20482;-51
2023/12/21 19:42:48;;;;;;;18.48;6.45;;;6.40;99.90;;;;;;5058214;28;20296;-45
2023/12/21 19:45:14;;;;;;;23.13;8.07;;;6.40;99.90;;;;;;5073802;28;20043;-46
2023/12/21 19:47:39;;;;;;;19.77;7.20;;;6.40;99.90;;;;;;5071609;28;20032;-49
2023/12/21 19:50:06;;;;;;;20.35;8.13;;;6.50;99.90;;;;;;5075809;28;20028;-48
2023/12/21 19:52:31;;;;;;;17.55;6.20;;;6.40;99.90;;;;;;5075291;28;20036;-47
2023/12/21 19:54:57;;;;;;;23.90;7.65;;;6.40;99.90;;;;;;5075188;28;20030;-49
2023/12/21 19:57:22;;;;;;;17.77;6.78;;;6.40;99.90;;;;;;5071786;28;20047;-51
2023/12/21 19:59:48;;;;;;;15.07;5.95;;;6.60;99.90;;;;;;5078705;28;20032;-49
2023/12/21 20:02:14;;;;;;;18.13;8.23;;;6.50;99.90;;;;;;5078008;28;20465;-51
2023/12/21 20:04:40;;;;;;;17.13;6.68;;;6.50;99.90;;;;;;5078608;28;20114;-48
2023/12/21 20:07:06;;;;;;;18.25;6.78;;;6.50;99.90;;;;;;5077246;28;20040;-50
2023/12/21 20:09:32;;;;;;;18.30;7.03;;;6.40;99.90;;;;;;5077023;28;20124;-47
2023/12/21 20:11:58;;;;;;;20.67;8.00;;;6.40;99.90;;;;;;5077716;28;20056;-49
2023/12/21 20:14:26;;;;;;;17.58;8.48;;;6.40;99.90;;;;;;5079745;28;20115;-51
2023/12/21 20:16:52;;;;;;;19.30;7.15;;;6.40;99.90;;;;;;5079058;28;21378;-49
2023/12/21 20:19:21;;;;;;;19.98;8.90;;;6.30;99.90;;;;;;5076105;28;20395;-49
2023/12/21 20:21:47;;;;;;;13.43;5.70;;;6.40;99.90;;;;;;5079783;28;20028;-50
2023/12/21 20:24:13;;;;;;;11.32;4.55;;;6.40;99.90;;;;;;5085814;28;20099;-49
2023/12/21 20:26:38;;;;;;;8.90;4.07;;;6.40;99.90;;;;;;5076247;28;20049;-50
2023/12/21 20:29:04;;;;;;;9.63;4.00;;;6.40;99.90;;;;;;5071531;28;20120;-49
2023/12/21 20:31:31;;;;;;;10.55;4.32;;;6.30;99.90;;;;;;5076536;28;20111;-49
2023/12/21 20:33:56;;;;;;;13.10;4.65;;;6.30;99.90;;;;;;5084972;28;20032;-50
2023/12/21 20:36:23;;;;;;;11.05;4.20;;;6.40;99.90;;;;;;5084918;28;20070;-50
2023/12/21 20:38:49;;;;;;;10.05;4.80;;;6.30;99.90;;;;;;5084722;28;20027;-50
2023/12/21 20:41:15;;;;;;;10.63;4.97;;;6.20;99.90;;;;;;5084731;28;20028;-51
2023/12/21 20:43:40;;;;;;;13.20;4.75;;;6.20;99.90;;;;;;5066059;28;20042;-51
2023/12/21 20:46:08;;;;;;;12.82;5.75;;;6.20;99.90;;;;;;5084259;28;20525;-50
2023/12/21 20:48:34;;;;;;;15.57;6.40;;;6.10;99.90;;;;;;5084213;28;20122;-51
2023/12/21 20:51:00;;;;;;;18.25;6.65;;;6.10;99.90;;;;;;5084594;28;20479;-50
2023/12/21 20:53:26;;;;;;;17.10;7.80;;;6.00;99.90;;;;;;5084338;28;20031;-50
2023/12/21 20:55:52;;;;;;;12.98;5.75;;;6.00;99.90;;;;;;5085722;28;20089;-50
2023/12/21 20:58:18;;;;;;;14.57;7.45;;;6.00;99.90;;;;;;5069576;28;20020;-52
2023/12/21 21:00:44;;;;;;;12.00;6.55;;;5.90;99.90;;;;;;5089369;28;20020;-50
2023/12/21 21:03:10;;;;;;;18.60;8.18;;;5.90;99.90;;;;;;5083327;28;20036;-50
2023/12/21 21:05:35;;;;;;;16.83;8.65;;;5.90;99.90;;;;;;5083669;28;20521;-51
2023/12/21 21:08:01;;;;;;;11.77;5.40;;;5.90;99.90;;;;;;5083526;28;20450;-51
2023/12/21 21:10:27;;;;;;;19.40;6.60;;;5.90;99.90;;;;;;5083940;28;20449;-52
2023/12/21 21:12:54;;;;;;;13.30;5.22;;;5.90;99.90;;;;;;5083611;28;20075;-53
2023/12/21 21:15:20;;;;;;;8.82;4.07;;;5.90;99.90;;;;;;5083809;28;20035;-52
2023/12/21 21:17:46;;;;;;;5.55;2.55;;;6.00;99.90;;;;;;5083538;28;20024;-51
2023/12/21 21:20:11;;;;;;;4.38;1.92;;;5.90;99.90;;;;;;5083750;28;20491;-49
2023/12/21 21:22:39;;;;;;;3.85;1.42;;;6.00;99.90;;;;;;5084076;28;20046;-51
2023/12/21 21:25:07;;;;;;;3.60;1.40;;;6.00;99.90;;;;;;5083656;28;20024;-49
2023/12/21 21:27:38;;;;;;;4.00;1.73;;;6.00;99.90;;;;;;5083422;28;20047;-49
2023/12/21 21:30:07;;;;;;;4.82;2.13;;;6.00;99.90;;;;;;5082738;28;20036;-48
2023/12/21 21:32:33;;;;;;;3.95;1.83;;;5.90;99.90;;;;;;5082782;28;20467;-49
2023/12/21 21:34:59;;;;;;;3.33;1.35;;;6.00;99.90;;;;;;5083553;28;20064;-50
2023/12/21 21:37:24;;;;;;;4.95;1.60;;;5.90;99.90;;;;;;5083776;28;20491;-49
2023/12/21 21:39:51;;;;;;;4.45;1.60;;;5.80;99.90;;;;;;5082679;28;20195;-49
2023/12/21 21:42:16;;;;;;;5.07;1.58;;;5.80;99.90;;;;;;5083488;28;20110;-51
2023/12/21 21:44:42;;;;;;;6.30;1.85;;;5.80;99.90;;;;;;5083118;28;20016;-50
2023/12/21 21:47:07;;;;;;;5.47;2.28;;;5.80;99.90;;;;;;5083785;28;20024;-51
2023/12/21 21:49:33;;;;;;;6.03;2.97;;;5.70;99.90;;;;;;5083285;28;20024;-50
2023/12/21 21:51:59;;;;;;;8.63;3.67;;;5.70;99.90;;;;;;5082776;28;20058;-51
2023/12/21 21:54:24;;;;;;;9.18;4.03;;;5.70;99.90;;;;;;5083252;28;20115;-52
2023/12/21 21:56:53;;;;;;;10.23;5.05;;;5.70;99.90;;;;;;5083295;28;20134;-51
2023/12/21 21:59:19;;;;;;;10.95;4.55;;;5.70;99.90;;;;;;5080848;28;20035;-53
2023/12/21 22:01:46;;;;;;;9.60;4.38;;;5.60;99.90;;;;;;5083209;28;20038;-53
2023/12/21 22:04:12;;;;;;;7.07;3.28;;;5.60;99.90;;;;;;5082806;28;20542;-50
2023/12/21 22:06:38;;;;;;;11.13;4.57;;;5.60;99.90;;;;;;5083185;28;20117;-52
2023/12/21 22:09:03;;;;;;;6.53;2.47;;;5.60;99.90;;;;;;5080490;28;20020;-51
2023/12/21 22:11:29;;;;;;;5.85;2.45;;;5.60;99.90;;;;;;5083480;28;20088;-52
2023/12/21 22:13:55;;;;;;;5.68;2.10;;;5.60;99.90;;;;;;5083262;28;20032;-51
2023/12/21 22:16:21;;;;;;;8.45;2.58;;;5.60;99.90;;;;;;5083753;28;20024;-52
2023/12/21 22:18:48;;;;;;;5.93;2.28;;;5.60;99.90;;;;;;5083133;28;20024;-49
2023/12/21 22:21:17;;;;;;;7.60;2.67;;;5.60;99.90;;;;;;5082442;28;20436;-51
2023/12/21 22:23:43;;;;;;;8.38;2.53;;;5.70;99.90;;;;;;5082959;28;20120;-51
2023/12/21 22:26:22;;;;;;;8.45;2.33;;;5.60;99.90;;;;;;5064469;28;20035;-51
2023/12/21 22:28:48;;;;;;;6.63;2.20;;;5.60;99.90;;;;;;5082853;28;20639;-50
2023/12/21 22:31:14;;;;;;;11.13;2.45;;;5.60;99.90;;;;;;5082788;28;20159;-50
2023/12/21 22:33:40;;;;;;;8.65;3.35;;;5.60;99.90;;;;;;5083028;28;20056;-51
2023/12/21 22:36:06;;;;;;;10.43;3.42;;;5.60;99.90;;;;;;5082796;28;20106;-50
2023/12/21 22:38:34;;;;;;;12.95;3.30;;;5.50;99.90;;;;;;5083305;28;20088;-50
2023/12/21 22:41:03;;;;;;;9.95;3.00;;;5.50;99.90;;;;;;5084165;28;20115;-50
2023/12/21 22:43:32;;;;;;;12.48;3.80;;;5.50;99.90;;;;;;5085342;28;20036;-51
2023/12/21 22:45:58;;;;;;;15.23;4.60;;;5.50;99.90;;;;;;5082543;28;20020;-55
2023/12/21 22:48:28;;;;;;;13.90;4.00;;;5.50;99.90;;;;;;5083386;28;20495;-51
2023/12/21 22:50:54;;;;;;;11.10;3.22;;;5.40;99.90;;;;;;5083221;28;20040;-50
2023/12/21 22:53:20;;;;;;;11.07;4.07;;;5.40;99.90;;;;;;5083112;28;20051;-51
2023/12/21 22:55:46;;;;;;;13.30;3.63;;;5.40;99.90;;;;;;5081648;28;20074;-50
2023/12/21 22:58:12;;;;;;;10.52;3.05;;;5.40;99.90;;;;;;5080353;28;20469;-49
2023/12/21 23:00:37;;;;;;;9.00;2.97;;;5.30;99.90;;;;;;5061415;28;20076;-51
2023/12/21 23:03:03;;;;;;;9.07;2.70;;;5.30;99.90;;;;;;5082712;28;20032;-50
2023/12/21 23:05:29;;;;;;;9.55;2.80;;;5.30;99.90;;;;;;5082542;28;20127;-51
2023/12/21 23:07:55;;;;;;;7.45;2.40;;;5.30;99.90;;;;;;5081659;28;20107;-50
2023/12/21 23:10:21;;;;;;;12.80;3.00;;;5.30;99.90;;;;;;5082499;28;20032;-53
2023/12/21 23:12:46;;;;;;;11.32;3.42;;;5.20;99.90;;;;;;5082222;28;20047;-51
2023/12/21 23:15:12;;;;;;;6.63;2.40;;;5.20;99.90;;;;;;5082366;28;20028;-50
2023/12/21 23:17:38;;;;;;;11.20;2.42;;;5.20;99.90;;;;;;5079484;28;20028;-50
2023/12/21 23:20:05;;;;;;;10.63;2.55;;;5.20;99.90;;;;;;5081817;28;20024;-54
2023/12/21 23:22:31;;;;;;;11.40;3.28;;;5.20;99.90;;;;;;5082197;28;20112;-50
2023/12/21 23:24:57;;;;;;;10.65;2.83;;;5.20;99.90;;;;;;5082384;28;20598;-51
2023/12/21 23:27:23;;;;;;;12.35;2.90;;;5.20;99.90;;;;;;5083071;28;20028;-52
2023/12/21 23:29:50;;;;;;;9.50;3.28;;;5.20;99.90;;;;;;5082811;28;20040;-53
2023/12/21 23:32:17;;;;;;;8.65;2.13;;;5.10;99.90;;;;;;5082422;28;20479;-53
2023/12/21 23:34:43;;;;;;;13.60;2.90;;;5.10;99.90;;;;;;5087005;28;20913;-50
2023/12/21 23:37:09;;;;;;;12.15;2.75;;;5.10;99.90;;;;;;5083620;28;20114;-51
2023/12/21 23:39:34;;;;;;;12.85;2.70;;;5.10;99.90;;;;;;5086078;28;20028;-52
2023/12/21 23:42:00;;;;;;;13.00;3.40;;;5.20;99.90;;;;;;5085893;28;20035;-52
2023/12/21 23:44:26;;;;;;;15.35;2.97;;;5.20;99.90;;;;;;5085823;28;20063;-52
2023/12/21 23:46:51;;;;;;;14.90;4.00;;;5.20;99.90;;;;;;5083306;28;20028;-53
2023/12/21 23:49:17;;;;;;;23.25;5.13;;;5.20;99.90;;;;;;5086711;28;20023;-53
2023/12/21 23:51:42;;;;;;;14.88;4.15;;;5.20;99.90;;;;;;5085784;28;20506;-51
2023/12/21 23:54:08;;;;;;;13.00;3.42;;;5.20;99.90;;;;;;5085418;28;20077;-51
2023/12/21 23:56:34;;;;;;;12.40;4.10;;;5.20;99.90;;;;;;5086374;28;20650;-49
2023/12/21 23:58:59;;;;;;;12.27;2.85;;;5.10;99.90;;;;;;5084320;28;20066;-50
